• Join FlightAware (Why Join?)
  • Login
  • US Flag GB Flag 
17:44 EST


 

Airport Tracker/Info


-or-


 

Live Flight TrackerFlight Track Log ✈ DAL268 ✈ 14-May-2013 ✈ KATL - KJFK

Flight Track Log - Related Links

Times and Time Zones

All times are in EDT time to prevent confusion due to time zone crossing. See the DAL268 flight status page for this flight to view local times or setup timezone preferences in your user account.

Time Position Orientation Groundspeed Altitude Reporting Facility
EDT Latitude Longitude Course Direction KTS MPH feet Rate Location/Type
18:24 33.6333 -84.4500 101° East 171 197 1,900  Level Atlanta TRACON
18:25 33.6167 -84.5167 253° West 232 267 3,200 2,000 Climbing Atlanta TRACON
18:25 33.5833 -84.5833 239° Southwest 265 305 5,700 2,474 Climbing Atlanta TRACON
18:26 33.8512 -84.1471 73° East  Level Estimated
18:26 33.5000 -84.5833 180° South 295 339 7,900  Level Atlanta TRACON
18:27 33.9225 -84.0532 101° East  Level Estimated
18:28 33.8493 -83.9613 134° Southeast  Level FlightAware Approximate
18:28 33.4575 -84.4397 109° East 323 372 11,100  Level Atlanta Center
18:29 33.9213 -83.8681 101° East  Level Estimated
18:29 33.4578 -84.3153 90° East 347 399 12,300  Level Atlanta Center
18:30 33.4914 -84.1883 72° East 379 436 14,200 2,050 Climbing Atlanta Center
18:31 33.5458 -84.0661 62° Northeast 403 464 16,400 2,000 Climbing Atlanta Center
18:32 33.5981 -83.9367 64° Northeast 420 483 18,200 1,700 Climbing Atlanta Center
18:33 33.6292 -83.7942 75° East 432 497 19,800 1,600 Climbing Atlanta Center
18:34 33.6622 -83.6469 75° East 445 512 21,400 1,450 Climbing Atlanta Center
18:35 33.7139 -83.5044 66° East 459 528 22,700 1,350 Climbing Atlanta Center
18:36 33.7653 -83.3792 64° Northeast 459 528 24,100 1,700 Climbing Atlanta Center
18:37 33.8353 -83.2136 63° Northeast 459 528 26,100 1,700 Climbing Atlanta Center
18:38 33.9033 -83.0803 58° Northeast 465 535 27,500 1,400 Climbing Atlanta Center
18:39 33.9689 -82.9442 60° Northeast 465 535 28,900 1,250 Climbing Atlanta Center
18:40 34.0322 -82.8156 59° Northeast 460 529 30,000 950 Climbing Atlanta Center
18:41 34.0956 -82.6817 60° Northeast 460 529 30,800 800 Climbing Atlanta Center
18:42 34.1589 -82.5478 60° Northeast 455 524 31,600 750 Climbing Atlanta Center
18:43 34.2158 -82.4286 60° Northeast 455 524 32,300 650 Climbing Atlanta Center
18:44 34.2786 -82.2967 60° Northeast 455 524 32,900 350 Climbing Atlanta Center
18:45 34.3414 -82.1594 61° Northeast 455 524 33,000 50 Climbing Atlanta Center
18:46 34.4058 -82.0222 60° Northeast 460 529 33,000  Level Atlanta Center
18:47 34.4622 -81.8972 61° Northeast 465 535 33,000  Level Atlanta Center
18:48 34.5406 -81.7314 60° Northeast 465 535 33,000  Level Atlanta Center
18:49 34.6028 -81.5983 60° Northeast 460 529 33,000  Level Atlanta Center
18:50 34.6628 -81.4781 59° Northeast 460 529 33,000  Level Atlanta Center
18:51 34.7225 -81.3447 61° Northeast 455 524 33,000  Level Atlanta Center
18:52 34.7861 -81.2036 61° Northeast 460 529 33,000  Level Atlanta Center
18:53 34.8497 -81.0672 60° Northeast 465 535 33,000  Level Atlanta Center
18:54 34.9172 -80.9206 61° Northeast 465 535 33,000  Level Atlanta Center
18:55 34.9822 -80.7814 60° Northeast 465 535 33,000  Level Atlanta Center
18:58 35.1286 -80.4553 61° Northeast 469 540 33,000  Level Washington Center
18:59 35.1928 -80.3142 61° Northeast 464 534 33,000  Level Washington Center
19:00 35.2503 -80.1728 63° Northeast 464 534 33,000  Level Washington Center
19:01 35.2975 -80.0278 68° East 464 534 33,000  Level Washington Center
19:02 35.3450 -79.8750 69° East 464 534 33,000  Level Washington Center
19:03 35.3897 -79.7272 70° East 464 534 33,000  Level Washington Center
19:04 35.4344 -79.5764 70° East 464 534 33,000  Level Washington Center
19:05 35.4858 -79.4081 69° East 464 534 33,000  Level Washington Center
19:06 35.5303 -79.2544 70° East 471 542 33,000  Level Washington Center
19:07 35.5767 -79.1036 69° East 476 548 33,000  Level Washington Center
19:08 35.6161 -78.9697 70° East 471 542 33,000  Level Washington Center
19:09 35.6619 -78.8183 70° East 471 542 33,000  Level Washington Center
19:10 35.7075 -78.6667 70° East 471 542 33,000  Level Washington Center
19:11 35.7533 -78.5097 70° East 471 542 33,000  Level Washington Center
19:12 35.7922 -78.3628 72° East 471 542 33,000  Level Washington Center
19:13 35.8353 -78.2131 70° East 464 534 33,000  Level Washington Center
19:14 35.8781 -78.0633 71° East 458 527 33,000  Level Washington Center
19:15 35.9208 -77.9158 70° East 458 527 33,000  Level Washington Center
19:16 35.9611 -77.7631 72° East 463 533 33,000  Level Washington Center
19:17 36.0264 -77.6183 61° Northeast 458 527 33,000  Level Washington Center
19:18 36.0969 -77.5097 51° Northeast 441 507 33,000  Level Washington Center
19:19 36.1783 -77.3778 53° Northeast 447 514 33,000  Level Washington Center
19:20 36.2531 -77.2583 52° Northeast 447 514 33,000  Level Washington Center
19:21 36.3378 -77.1519 45° Northeast 442 509 33,000  Level Washington Center
19:22 36.4225 -77.0683 38° Northeast 428 493 33,000  Level Washington Center
19:23 36.5278 -76.9669 38° Northeast 428 493 33,000  Level Washington Center
19:24 36.6208 -76.8756 38° Northeast 428 493 33,000 -148 Level Washington Center
19:25 36.7156 -76.7889 36° Northeast 423 487 32,700 -1,008 Descending Washington Center
19:26 36.8019 -76.7047 38° Northeast 411 473 31,000 -1,831 Descending Washington Center
19:27 36.8819 -76.6253 38° Northeast 401 461 29,100 -992 Descending Washington Center
19:28 36.9722 -76.5331 39° Northeast 401 461 29,000 -49 Descending Washington Center
19:29 37.0669 -76.4431 37° Northeast 408 470 29,000  Level Washington Center
19:30 37.1592 -76.3503 39° Northeast 419 482 29,000  Level Washington Center
19:31 37.2517 -76.2572 39° Northeast 419 482 29,000  Level Washington Center
19:32 37.3439 -76.1692 37° Northeast 419 482 29,000  Level Washington Center
19:33 37.4486 -76.0731 36° Northeast 419 482 29,000 -50 Level Washington Center
19:34 37.5406 -75.9822 38° Northeast 419 482 28,900  Descending Washington Center
19:35 37.6325 -75.8933 37° Northeast 419 482 29,000 -744 Climbing Washington Center
19:36 37.7244 -75.8019 38° Northeast 419 482 27,400 -992 Descending Washington Center
19:37 37.8206 -75.7047 39° Northeast 419 482 27,000 -248 Descending Washington Center
19:38 37.9144 -75.6103 38° Northeast 419 482 26,900  Descending Washington Center
19:39 38.0106 -75.5153 38° Northeast 419 482 27,000 51 Climbing Washington Center
19:40 38.1064 -75.4333 34° Northeast 419 482 27,000  Level Washington Center
19:41 38.2125 -75.3725 24° Northeast 408 470 27,000  Level Washington Center
19:42 38.3144 -75.3139 24° Northeast 402 463 27,000  Level Washington Center
19:43 38.4103 -75.2419 30° Northeast 402 463 27,000  Level Washington Center
19:44 38.5103 -75.1753 28° Northeast 402 463 27,000  Level Washington Center
19:45 38.6100 -75.1133 26° Northeast 402 463 27,000  Level Washington Center
19:46 38.7036 -75.0569 25° Northeast 408 470 27,000 -298 Level Washington Center
19:47 38.8011 -74.9922 27° Northeast 402 463 26,400 -645 Descending Washington Center
19:48 38.9011 -74.9300 26° Northeast 396 456 25,700 -1,091 Descending Washington Center
19:49 38.9986 -74.8650 27° Northeast 396 456 24,200 -1,261 Descending Washington Center
19:50 39.0981 -74.7944 29° Northeast 396 456 23,200 -1,150 Descending Washington Center
19:51 39.1872 -74.7025 39° Northeast 396 456 21,900 -1,238 Descending Washington Center
19:52 39.2928 -74.5908 39° Northeast 410 472 20,600 -1,152 Descending New York Center
19:53 39.3750 -74.5011 40° Northeast 399 459 19,500 -1,150 Descending New York Center
19:54 39.4506 -74.4192 40° Northeast 393 452 18,300 -750 Descending New York Center
19:55 39.5347 -74.3267 40° Northeast 393 452 18,000 -150 Descending New York Center
19:56 39.6186 -74.2367 40° Northeast 373 429 18,000 -1,100 Level New York Center
19:57 39.6919 -74.1539 41° Northeast 352 405 15,800 -1,850 Descending New York Center
19:58 39.7653 -74.0736 40° Northeast 341 392 14,300 -1,150 Descending New York Center
19:59 39.8317 -74.0039 39° Northeast 341 392 13,500 -900 Descending New York Center
20:00 39.9169 -73.9375 31° Northeast 334 384 12,500 -942 Descending New York Center
20:01 39.9894 -73.8703 35° Northeast 329 379 11,600 -800 Descending New York Center
20:02 40.0556 -73.8164 32° Northeast 295 339 10,900 -1,160 Descending New York Center
20:03 40.1197 -73.7594 34° Northeast 275 316 9,300 -1,683 Descending New York Center
20:03 40.1500 -73.7333 33° Northeast 275 316 8,600 -1,500 Descending New York TRACON
20:04 40.2000 -73.7000 27° Northeast 268 308 7,400 -1,474 Descending New York TRACON
20:05 40.2667 -73.6500 30° Northeast 271 312 5,800 -1,500 Descending New York TRACON
20:06 40.3067 -73.6097 38° Northeast 269 310 4,800 -1,029 Descending New York Center
20:07 40.3747 -73.5525 33° Northeast 264 304 4,000 -585 Descending New York Center
20:07 40.4000 -73.5333 30° Northeast 264 304 4,000  Level New York TRACON
20:08 40.4667 -73.5000 21° North 263 303 4,000  Level New York TRACON
20:09 40.5333 -73.4667 21° North 262 302 4,000  Level New York TRACON
20:10 40.6000 -73.4333 21° North 263 303 4,000  Level New York TRACON
20:11 40.6667 -73.4000 21° North 262 302 4,000 -50 Level New York TRACON
20:12 40.7333 -73.3833 11° North 264 304 3,900  Descending New York TRACON
20:13 40.7833 -73.4500 315° West 210 242 4,000 48 Climbing New York TRACON
20:14 40.8000 -73.5167 288° West 212 244 4,000 -474 Level New York TRACON
20:15 40.8333 -73.5667 311° West 207 238 3,100 -842 Descending New York TRACON
20:16 40.8167 -73.6167 246° West 180 207 2,400 -550 Descending New York TRACON
20:17 40.7833 -73.6500 217° Southwest 158 182 2,000 -200 Descending New York TRACON
20:18 40.7500 -73.6833 217° Southwest 157 181 2,000  Level New York TRACON